createdAt,value
2022-11-17T00:03:30.925Z,91.70
2022-11-17T00:08:33.217Z,91.44
2022-11-17T00:13:56.991Z,92.01
2022-11-17T00:19:17.843Z,92.54
2022-11-17T00:24:19.742Z,92.22
2022-11-17T00:29:21.614Z,92.08
2022-11-17T00:34:24.016Z,92.17
2022-11-17T00:39:25.863Z,92.36
2022-11-17T00:44:27.859Z,91.86
2022-11-17T00:49:29.755Z,92.38
2022-11-17T00:54:31.592Z,92.30
2022-11-17T00:59:33.496Z,92.38
2022-11-17T01:04:35.321Z,92.26
2022-11-17T01:09:37.184Z,92.33
2022-11-17T01:14:39.089Z,92.38
2022-11-17T01:19:41.125Z,92.61
2022-11-17T01:24:42.987Z,92.38
2022-11-17T01:29:44.894Z,92.42
2022-11-17T01:34:47.573Z,92.88
2022-11-17T01:39:50.827Z,92.95
2022-11-17T01:45:01.812Z,93.33
2022-11-17T01:50:03.689Z,93.31
2022-11-17T01:55:08.771Z,93.46
2022-11-17T02:00:12.094Z,93.90
2022-11-17T02:06:11.675Z,93.55
2022-11-17T02:11:18.221Z,93.47
2022-11-17T02:16:20.322Z,93.78
2022-11-17T02:22:02.208Z,93.91
2022-11-17T02:27:32.215Z,93.82
2022-11-17T02:32:59.510Z,93.86
2022-11-17T02:38:27.491Z,93.16
2022-11-17T02:43:59.411Z,92.49
2022-11-17T02:49:08.426Z,92.10
2022-11-17T02:54:11.704Z,92.44
2022-11-17T02:59:17.072Z,91.95
2022-11-17T03:04:22.012Z,91.64
2022-11-17T03:09:44.519Z,91.64
2022-11-17T03:15:04.590Z,91.98
2022-11-17T03:20:14.392Z,91.76
2022-11-17T03:25:21.614Z,91.73
2022-11-17T03:30:25.688Z,91.75
2022-11-17T03:35:32.402Z,91.80
2022-11-17T03:40:39.453Z,91.48
2022-11-17T03:45:47.405Z,91.72
2022-11-17T03:50:57.937Z,91.64
2022-11-17T03:56:11.083Z,91.48
2022-11-17T04:01:14.947Z,91.61
2022-11-17T04:06:16.838Z,91.58
2022-11-17T04:11:37.596Z,92.23
2022-11-17T04:16:39.395Z,91.47
2022-11-17T04:21:41.373Z,91.64
2022-11-17T04:27:02.049Z,91.29
2022-11-17T04:32:04.073Z,91.81
2022-11-17T04:37:17.376Z,91.50
2022-11-17T04:42:19.490Z,91.15
2022-11-17T04:47:21.342Z,91.09
2022-11-17T04:52:26.891Z,91.47
2022-11-17T04:57:31.597Z,91.45
2022-11-17T05:02:33.457Z,91.25
2022-11-17T05:07:35.401Z,91.40
2022-11-17T05:12:56.030Z,91.43
2022-11-17T05:17:57.835Z,91.21
2022-11-17T05:23:18.361Z,91.02
2022-11-17T05:28:20.214Z,91.49
2022-11-17T05:33:21.985Z,91.27
2022-11-17T05:38:23.877Z,91.22
2022-11-17T05:43:25.743Z,91.36
2022-11-17T05:48:27.738Z,91.38
2022-11-17T05:53:30.379Z,91.15
2022-11-17T05:58:36.607Z,91.15
2022-11-17T06:03:42.282Z,90.93
2022-11-17T06:08:44.123Z,91.28
2022-11-17T06:13:45.964Z,91.47
2022-11-17T06:18:55.325Z,90.68
2022-11-17T06:23:58.154Z,90.11
2022-11-17T06:29:02.287Z,90.19
2022-11-17T06:34:05.235Z,89.78
2022-11-17T06:39:07.034Z,90.10
2022-11-17T06:44:08.907Z,90.21
2022-11-17T06:49:10.731Z,89.56
2022-11-17T06:54:14.839Z,90.08
2022-11-17T06:59:17.420Z,90.06
2022-11-17T07:04:19.640Z,90.15
2022-11-17T07:09:21.614Z,89.59
2022-11-17T07:14:23.565Z,89.25
2022-11-17T07:19:25.482Z,89.84
2022-11-17T07:24:27.409Z,90.28
2022-11-17T07:29:30.958Z,89.76
2022-11-17T07:34:32.832Z,89.38
2022-11-17T07:39:34.717Z,89.38
2022-11-17T07:44:36.593Z,88.82
2022-11-17T07:49:38.481Z,89.14
2022-11-17T07:54:40.840Z,88.68
2022-11-17T07:59:42.692Z,88.83
2022-11-17T08:04:44.578Z,88.50
2022-11-17T08:09:46.501Z,88.96
2022-11-17T08:14:48.424Z,87.87
2022-11-17T08:19:50.444Z,87.55
2022-11-17T08:24:52.333Z,87.40
2022-11-17T08:29:54.284Z,86.79
2022-11-17T08:34:56.174Z,86.65
2022-11-17T08:39:58.012Z,87.02
2022-11-17T08:45:00.670Z,87.03
2022-11-17T08:50:03.133Z,86.27
2022-11-17T08:55:05.980Z,86.15
2022-11-17T09:00:08.775Z,86.39
2022-11-17T09:05:10.667Z,85.75
2022-11-17T09:10:12.937Z,85.34
2022-11-17T09:15:14.834Z,85.72
2022-11-17T09:20:17.791Z,86.34
2022-11-17T09:25:19.629Z,85.83
2022-11-17T09:30:22.491Z,85.82
2022-11-17T09:35:24.313Z,85.18
2022-11-17T09:40:26.601Z,85.53
2022-11-17T09:45:35.247Z,85.95
2022-11-17T09:50:39.394Z,86.00
2022-11-17T09:55:45.528Z,85.61
2022-11-17T10:00:49.032Z,86.42
2022-11-17T10:05:52.200Z,85.68
2022-11-17T10:10:54.051Z,85.83
2022-11-17T10:16:01.113Z,85.56
2022-11-17T10:21:05.501Z,85.98
2022-11-17T10:26:09.961Z,84.96
2022-11-17T10:31:19.550Z,84.32
2022-11-17T10:36:29.176Z,83.92
2022-11-17T10:41:41.351Z,83.64
2022-11-17T10:47:08.208Z,84.15
2022-11-17T10:52:16.959Z,84.67
2022-11-17T10:57:26.717Z,85.53
2022-11-17T11:02:36.298Z,84.08
2022-11-17T11:07:39.888Z,84.51
2022-11-17T11:12:47.789Z,84.26
2022-11-17T11:17:51.160Z,83.69
2022-11-17T11:22:55.913Z,84.46
2022-11-17T11:28:19.516Z,83.20
2022-11-17T11:33:36.699Z,82.91
2022-11-17T11:38:50.280Z,83.34
2022-11-17T11:43:58.193Z,82.74
2022-11-17T11:49:12.972Z,82.20
2022-11-17T11:54:51.203Z,82.79
2022-11-17T12:00:04.467Z,82.01
2022-11-17T12:05:20.279Z,81.75
2022-11-17T12:10:42.069Z,81.92
2022-11-17T12:15:44.168Z,82.20
2022-11-17T12:20:52.083Z,82.60
2022-11-17T12:25:59.168Z,83.72
2022-11-17T12:31:10.664Z,81.74
2022-11-17T12:36:18.540Z,83.73
2022-11-17T12:41:48.346Z,80.96
2022-11-17T12:46:55.741Z,81.73
2022-11-17T12:52:07.042Z,81.32
2022-11-17T12:57:14.755Z,80.39
2022-11-17T13:02:47.946Z,81.24
2022-11-17T13:07:50.277Z,81.73
2022-11-17T13:13:13.115Z,82.15
2022-11-17T13:18:28.594Z,82.74
2022-11-17T13:23:33.670Z,80.90
2022-11-17T13:28:35.590Z,84.62
2022-11-17T13:33:40.403Z,83.51
2022-11-17T13:38:53.198Z,82.48
2022-11-17T13:43:56.144Z,81.92
2022-11-17T13:48:58.024Z,81.67
2022-11-17T13:54:01.147Z,81.94
2022-11-17T13:59:18.157Z,81.15
2022-11-17T14:04:23.183Z,82.73
2022-11-17T14:09:27.374Z,81.73
2022-11-17T14:14:38.415Z,82.49
2022-11-17T14:19:41.006Z,83.01
2022-11-17T14:24:42.858Z,82.07
2022-11-17T14:29:44.958Z,81.90
2022-11-17T14:34:46.906Z,80.67
2022-11-17T14:39:48.770Z,80.84
2022-11-17T14:44:50.593Z,82.36
2022-11-17T14:49:52.404Z,81.18
2022-11-17T14:54:54.274Z,80.57
2022-11-17T14:59:56.165Z,80.52
2022-11-17T15:05:00.183Z,81.34
2022-11-17T15:10:03.107Z,80.84
2022-11-17T15:15:05.520Z,80.67
2022-11-17T15:20:08.084Z,80.87
2022-11-17T15:25:10.017Z,81.84
2022-11-17T15:30:12.524Z,81.93
2022-11-17T15:35:14.419Z,81.40
2022-11-17T15:40:19.432Z,80.60
2022-11-17T15:45:21.690Z,82.21
2022-11-17T15:50:23.509Z,81.17
2022-11-17T15:55:25.338Z,80.82
2022-11-17T16:00:27.204Z,81.00
2022-11-17T16:05:29.052Z,80.90
2022-11-17T16:10:30.883Z,82.00
2022-11-17T16:15:32.685Z,80.79
2022-11-17T16:20:34.620Z,81.78
2022-11-17T16:25:44.158Z,82.48
2022-11-17T16:30:46.034Z,82.19
2022-11-17T16:35:47.885Z,81.57
2022-11-17T16:40:49.757Z,81.55
2022-11-17T16:45:51.586Z,81.62
2022-11-17T16:50:53.465Z,80.90
2022-11-17T16:55:55.272Z,82.98
2022-11-17T17:00:57.792Z,81.53
2022-11-17T17:06:03.975Z,81.45
2022-11-17T17:11:08.811Z,81.20
2022-11-17T17:16:13.648Z,81.24
2022-11-17T17:21:18.278Z,83.29
2022-11-17T17:26:22.518Z,82.68
2022-11-17T17:31:26.248Z,82.31
2022-11-17T17:36:29.232Z,83.02
2022-11-17T17:41:33.519Z,81.29
2022-11-17T17:46:38.512Z,82.67
2022-11-17T17:51:44.275Z,83.05
2022-11-17T17:56:47.507Z,81.36
2022-11-17T18:01:49.794Z,81.09
2022-11-17T18:06:51.796Z,80.63
2022-11-17T18:11:53.671Z,80.78
2022-11-17T18:16:56.027Z,81.62
2022-11-17T18:21:57.880Z,80.85
2022-11-17T18:26:59.790Z,80.47
2022-11-17T18:32:01.664Z,82.75
2022-11-17T18:37:03.579Z,80.89
2022-11-17T18:42:05.555Z,80.30
2022-11-17T18:47:07.492Z,80.73
2022-11-17T18:52:09.909Z,80.42
2022-11-17T18:57:11.799Z,81.17
2022-11-17T19:02:13.667Z,80.01
2022-11-17T19:07:15.630Z,79.75
2022-11-17T19:12:19.119Z,80.56
2022-11-17T19:17:20.993Z,79.87
2022-11-17T19:22:23.263Z,79.13
2022-11-17T19:27:25.083Z,79.34
2022-11-17T19:32:27.074Z,80.32
2022-11-17T19:37:28.983Z,79.29
2022-11-17T19:42:30.922Z,80.02
2022-11-17T19:47:32.760Z,80.67
2022-11-17T19:52:34.903Z,79.39
2022-11-17T19:57:36.728Z,79.88
2022-11-17T20:02:38.560Z,79.39
2022-11-17T20:07:40.466Z,79.24
2022-11-17T20:12:43.878Z,79.32
2022-11-17T20:17:45.728Z,79.42
2022-11-17T20:22:47.595Z,79.40
2022-11-17T20:27:49.477Z,79.25
2022-11-17T20:32:51.276Z,79.55
2022-11-17T20:37:53.109Z,79.28
2022-11-17T20:42:55.242Z,79.75
2022-11-17T20:47:57.109Z,80.36
2022-11-17T20:52:58.964Z,79.61
2022-11-17T20:58:00.798Z,79.26
2022-11-17T21:03:02.708Z,79.79
2022-11-17T21:08:04.822Z,80.95
2022-11-17T21:13:06.715Z,81.51
2022-11-17T21:18:26.467Z,79.85
2022-11-17T21:23:28.545Z,80.89
2022-11-17T21:28:30.417Z,80.54
2022-11-17T21:33:32.337Z,80.79
2022-11-17T21:38:34.424Z,79.46
2022-11-17T21:43:38.439Z,79.46
2022-11-17T21:48:40.955Z,80.55
2022-11-17T21:53:43.288Z,79.92
2022-11-17T21:58:45.173Z,79.93
2022-11-17T22:03:47.147Z,80.43
2022-11-17T22:08:50.079Z,80.14
2022-11-17T22:13:57.954Z,81.41
2022-11-17T22:18:59.882Z,79.99
2022-11-17T22:24:02.689Z,80.36
2022-11-17T22:29:06.479Z,79.71
2022-11-17T22:34:08.848Z,81.37
2022-11-17T22:39:10.807Z,82.33
2022-11-17T22:44:14.410Z,79.84
2022-11-17T22:49:16.414Z,80.88
2022-11-17T22:54:18.398Z,79.43
2022-11-17T22:59:23.378Z,79.24
2022-11-17T23:04:25.304Z,79.85
2022-11-17T23:09:27.322Z,79.40
2022-11-17T23:14:29.279Z,79.05
2022-11-17T23:19:31.098Z,78.91
2022-11-17T23:24:32.921Z,79.70
2022-11-17T23:29:34.790Z,79.82
2022-11-17T23:34:36.619Z,79.34
2022-11-17T23:39:38.552Z,79.45
2022-11-17T23:44:40.391Z,81.18
2022-11-17T23:49:42.223Z,80.28
2022-11-17T23:54:44.586Z,79.68
2022-11-17T23:59:46.413Z,79.98
